Time;durP1;ratioP1;P1;durP2;ratioP2;P2;SDS_P1;SDS_P2;PMS_P1;PMS_P2;Temp;Humidity;BMP_temperature;BMP_pressure;BME280_temperature;BME280_humidity;BME280_pressure;Samples;Min_cycle;Max_cycle;Signal;HPM_P1;HPM_P2
2024/03/29 00:00:56;;;;;;;70.70;19.90;;;;;;;17.05;51.39;101042.19;110577;1253;22181;-55
2024/03/29 00:03:24;;;;;;;42.90;11.10;;;;;;;17.05;51.21;101043.23;110549;1272;22146;-56
2024/03/29 00:05:51;;;;;;;50.00;12.10;;;;;;;17.08;51.02;101038.55;110430;1259;23222;-55
2024/03/29 00:08:19;;;;;;;47.80;13.90;;;;;;;17.06;50.87;101034.59;110608;1256;22138;-56
2024/03/29 00:10:47;;;;;;;45.80;13.60;;;;;;;17.02;50.66;101032.67;110423;1259;22834;-55
2024/03/29 00:13:14;;;;;;;35.00;10.10;;;;;;;16.96;50.43;101033.81;110561;1269;22351;-55
2024/03/29 00:15:42;;;;;;;37.80;11.80;;;;;;;16.91;50.39;101033.67;110650;1253;23142;-56
2024/03/29 00:18:09;;;;;;;45.20;12.90;;;;;;;16.87;50.49;101035.98;110565;1257;23012;-56
2024/03/29 00:20:37;;;;;;;40.50;10.70;;;;;;;16.83;50.58;101033.67;110275;1256;22129;-56
2024/03/29 00:23:04;;;;;;;49.20;13.20;;;;;;;16.81;50.66;101032.52;110554;1256;22427;-55
2024/03/29 00:25:31;;;;;;;69.60;19.10;;;;;;;16.80;50.55;101031.02;110539;1253;22138;-55
2024/03/29 00:28:01;;;;;;;83.30;21.50;;;;;;;16.78;50.46;101028.84;110600;1253;22612;-55
2024/03/29 00:30:28;;;;;;;80.50;22.00;;;;;;;16.74;50.40;101026.73;110570;1254;22289;-55
2024/03/29 00:32:55;;;;;;;94.70;22.70;;;;;;;16.70;50.26;101026.55;110705;1250;22282;-55
2024/03/29 00:35:23;;;;;;;86.70;23.30;;;;;;;16.66;50.23;101025.83;110567;1256;22309;-55
2024/03/29 00:37:50;;;;;;;89.10;22.70;;;;;;;16.62;50.34;101022.51;110587;1254;22778;-55
2024/03/29 00:40:18;;;;;;;78.70;22.40;;;;;;;16.58;50.47;101020.79;110575;1256;22862;-56
2024/03/29 00:42:45;;;;;;;72.40;22.30;;;;;;;16.49;50.49;101019.71;110303;1256;22129;-55
2024/03/29 00:45:13;;;;;;;75.90;20.80;;;;;;;16.46;50.24;101019.84;110627;1254;22887;-55
2024/03/29 00:47:58;;;;;;;69.30;18.80;;;;;;;16.37;50.04;101014.98;110613;1253;22348;-55
2024/03/29 00:50:26;;;;;;;65.80;17.90;;;;;;;16.34;50.37;101009.84;110580;1254;23215;-55
2024/03/29 00:52:53;;;;;;;36.80;13.20;;;;;;;16.33;50.87;101012.88;110567;1257;22378;-56
2024/03/29 00:55:21;;;;;;;49.10;15.40;;;;;;;16.32;51.16;101016.06;110589;1253;22305;-56
2024/03/29 00:57:48;;;;;;;54.90;17.10;;;;;;;16.30;51.09;101015.77;110611;1255;22287;-56
2024/03/29 01:00:16;;;;;;;44.50;14.40;;;;;;;16.29;50.78;101015.98;110609;1253;22438;-55
2024/03/29 01:02:47;;;;;;;93.70;25.20;;;;;;;16.27;50.48;101012.89;110610;1253;22334;-55
2024/03/29 01:05:14;;;;;;;110.10;28.10;;;;;;;16.23;50.09;101008.01;109837;1253;1002425;-55
2024/03/29 01:07:42;;;;;;;101.40;25.50;;;;;;;16.17;50.03;101004.92;110590;1253;22826;-55
2024/03/29 01:10:09;;;;;;;89.60;23.80;;;;;;;16.12;50.12;101001.46;110433;1256;22764;-55
2024/03/29 01:12:39;;;;;;;86.80;24.70;;;;;;;16.08;50.40;101008.62;110594;1256;22909;-56
2024/03/29 01:15:07;;;;;;;88.90;25.00;;;;;;;16.05;50.63;101013.65;110351;1260;22155;-55
2024/03/29 01:17:34;;;;;;;96.40;26.20;;;;;;;16.02;50.69;101015.85;110538;1274;22245;-55
2024/03/29 01:20:01;;;;;;;82.50;21.70;;;;;;;16.00;50.66;101023.13;110605;1256;22447;-55
2024/03/29 01:22:29;;;;;;;56.70;15.20;;;;;;;15.97;50.63;101030.94;109858;1253;1003015;-55
2024/03/29 01:24:57;;;;;;;47.20;14.30;;;;;;;15.95;50.92;101036.77;110584;1253;22323;-55
2024/03/29 01:27:25;;;;;;;51.50;12.80;;;;;;;15.95;51.24;101045.36;110607;1257;22328;-55
2024/03/29 01:29:52;;;;;;;41.90;10.90;;;;;;;15.95;51.47;101052.86;110576;1256;23143;-55
2024/03/29 01:32:20;;;;;;;28.30;8.50;;;;;;;15.97;51.82;101053.15;110103;1264;22164;-56
2024/03/29 01:34:47;;;;;;;33.90;10.40;;;;;;;15.99;51.98;101056.91;110592;1253;22202;-55
2024/03/29 01:37:14;;;;;;;53.50;14.60;;;;;;;16.01;51.92;101052.65;110587;1253;22372;-55
2024/03/29 01:39:42;;;;;;;48.20;13.40;;;;;;;16.03;51.97;101053.44;110419;1257;22126;-55
2024/03/29 01:42:09;;;;;;;47.60;14.30;;;;;;;16.03;51.90;101046.94;110579;1259;22129;-55
2024/03/29 01:44:37;;;;;;;43.40;12.20;;;;;;;16.04;51.87;101050.41;110630;1253;22785;-56
2024/03/29 01:47:04;;;;;;;47.10;13.50;;;;;;;16.05;51.74;101054.59;110592;1253;22439;-55
2024/03/29 01:49:32;;;;;;;51.90;13.10;;;;;;;16.05;51.78;101061.21;110404;1259;22329;-55
2024/03/29 01:51:59;;;;;;;45.70;12.40;;;;;;;16.06;51.73;101062.24;110199;1262;22301;-55
2024/03/29 01:54:27;;;;;;;50.50;13.60;;;;;;;16.05;51.61;101061.22;110563;1253;22139;-55
2024/03/29 01:56:55;;;;;;;43.40;12.50;;;;;;;16.05;51.80;101069.44;110615;1256;23165;-55
2024/03/29 01:59:23;;;;;;;35.70;9.80;;;;;;;16.05;51.82;101070.84;110466;1256;22359;-56
2024/03/29 02:01:51;;;;;;;41.10;12.20;;;;;;;16.06;51.93;101066.80;110441;1259;22349;-55
2024/03/29 02:04:18;;;;;;;44.80;11.40;;;;;;;16.05;51.89;101063.35;110580;1253;22411;-55
2024/03/29 02:06:45;;;;;;;39.20;12.90;;;;;;;16.04;51.89;101061.63;110610;1257;22930;-56
2024/03/29 02:09:13;;;;;;;42.10;12.50;;;;;;;16.03;51.71;101062.37;110556;1253;22125;-56
2024/03/29 02:11:40;;;;;;;38.80;13.00;;;;;;;16.02;51.77;101061.02;110575;1256;22235;-55
2024/03/29 02:14:08;;;;;;;43.10;11.60;;;;;;;16.01;51.75;101064.88;110559;1253;22396;-55
2024/03/29 02:16:37;;;;;;;47.80;12.70;;;;;;;16.00;51.64;101064.59;110612;1253;22453;-55
2024/03/29 02:19:05;;;;;;;43.30;12.90;;;;;;;15.98;51.68;101062.20;110587;1253;22382;-55
2024/03/29 02:21:33;;;;;;;32.90;9.80;;;;;;;15.95;51.75;101065.30;110574;1259;22446;-56
2024/03/29 02:24:07;;;;;;;32.20;9.70;;;;;;;15.90;51.97;101063.92;110436;1256;22120;-55
2024/03/29 02:26:37;;;;;;;31.00;9.50;;;;;;;15.89;51.89;101066.59;109571;1260;1002093;-55
2024/03/29 02:29:05;;;;;;;36.70;9.60;;;;;;;15.88;51.96;101063.67;110551;1254;22317;-55
2024/03/29 02:31:32;;;;;;;33.00;8.20;;;;;;;15.86;52.03;101062.85;110585;1256;22369;-56
2024/03/29 02:33:59;;;;;;;20.70;7.70;;;;;;;15.85;52.05;101063.42;110615;1256;22115;-55
2024/03/29 02:36:27;;;;;;;27.20;7.50;;;;;;;15.84;52.13;101061.21;110579;1254;22286;-55
2024/03/29 02:38:54;;;;;;;30.50;8.40;;;;;;;15.83;52.22;101059.48;110602;1256;22369;-55
2024/03/29 02:41:22;;;;;;;28.60;8.40;;;;;;;15.82;52.27;101059.36;110614;1255;22894;-55
2024/03/29 02:43:49;;;;;;;30.90;9.00;;;;;;;15.81;52.34;101056.95;110643;1254;22407;-55
2024/03/29 02:46:17;;;;;;;33.60;8.80;;;;;;;15.80;52.48;101053.48;110648;1253;22113;-56
2024/03/29 02:48:44;;;;;;;27.60;8.00;;;;;;;15.79;52.55;101050.88;110576;1255;22410;-56
2024/03/29 02:51:12;;;;;;;25.80;8.20;;;;;;;15.79;52.70;101046.00;110518;1259;22531;-55
2024/03/29 02:53:39;;;;;;;28.40;8.70;;;;;;;15.79;52.68;101040.58;110559;1267;22307;-55
2024/03/29 02:56:07;;;;;;;32.60;8.10;;;;;;;15.79;52.67;101036.38;110562;1253;22099;-55
2024/03/29 02:58:35;;;;;;;27.60;9.00;;;;;;;15.78;52.75;101034.66;110620;1256;22237;-55
2024/03/29 03:01:07;;;;;;;29.80;8.00;;;;;;;15.78;52.67;101029.27;110634;1256;22170;-56
2024/03/29 03:03:35;;;;;;;25.90;8.60;;;;;;;15.77;52.72;101024.71;110539;1256;22431;-55
2024/03/29 03:06:02;;;;;;;31.90;9.40;;;;;;;15.67;52.81;101023.19;110577;1253;22275;-55
2024/03/29 03:11:16;;;;;;;29.50;8.10;;;;;;;15.55;53.26;101035.73;110580;1253;22291;-55
2024/03/29 03:13:43;;;;;;;36.80;7.60;;;;;;;15.54;53.39;101037.17;110603;1253;23187;-55
2024/03/29 03:16:11;;;;;;;23.20;7.00;;;;;;;15.53;53.64;101046.30;110593;1256;22361;-56
2024/03/29 03:18:38;;;;;;;17.80;6.60;;;;;;;15.51;53.82;101050.02;110531;1272;22349;-55
2024/03/29 03:21:06;;;;;;;25.70;6.50;;;;;;;15.48;54.09;101055.06;110600;1256;22288;-55
2024/03/29 03:23:33;;;;;;;25.00;7.60;;;;;;;15.46;54.28;101060.00;110582;1254;22364;-55
2024/03/29 03:26:05;;;;;;;20.90;5.60;;;;;;;15.45;54.36;101062.31;110485;1263;22396;-55
2024/03/29 03:28:33;;;;;;;21.60;6.80;;;;;;;15.44;54.34;101064.98;110414;1257;23173;-55
2024/03/29 03:31:00;;;;;;;22.90;5.70;;;;;;;15.43;54.37;101065.70;110552;1256;23127;-55
2024/03/29 03:33:28;;;;;;;21.10;6.10;;;;;;;15.43;54.47;101074.47;110567;1255;22507;-55
2024/03/29 03:35:55;;;;;;;23.30;6.40;;;;;;;15.42;54.52;101075.52;110594;1256;22329;-55
2024/03/29 03:38:23;;;;;;;22.40;7.00;;;;;;;15.41;54.51;101084.48;110618;1256;23155;-55
2024/03/29 03:40:51;;;;;;;22.30;7.60;;;;;;;15.40;54.72;101082.77;110533;1257;22196;-55
2024/03/29 03:43:18;;;;;;;27.10;8.00;;;;;;;15.40;54.70;101088.36;110569;1268;22348;-55
2024/03/29 03:45:47;;;;;;;30.00;8.00;;;;;;;15.39;54.85;101091.19;110549;1255;22220;-55
2024/03/29 03:48:15;;;;;;;29.10;8.20;;;;;;;15.38;54.79;101087.39;110553;1256;22408;-55
2024/03/29 03:50:42;;;;;;;30.00;8.20;;;;;;;15.37;54.75;101087.75;110593;1256;22131;-55
2024/03/29 03:53:10;;;;;;;23.30;7.80;;;;;;;15.36;54.77;101086.57;110407;1260;22559;-56
2024/03/29 03:55:37;;;;;;;23.70;7.00;;;;;;;15.34;54.88;101088.91;110622;1253;22134;-55
2024/03/29 03:58:05;;;;;;;23.30;7.00;;;;;;;15.35;54.77;101094.30;109801;1257;1002223;-55
2024/03/29 04:00:32;;;;;;;23.30;6.30;;;;;;;15.35;54.80;101093.63;110536;1253;22135;-55
2024/03/29 04:03:00;;;;;;;22.90;6.10;;;;;;;15.35;54.81;101096.77;110494;1258;22115;-55
2024/03/29 04:05:28;;;;;;;31.30;7.00;;;;;;;15.34;54.84;101095.40;110609;1253;22344;-55
2024/03/29 04:07:55;;;;;;;21.90;6.30;;;;;;;15.34;54.84;101098.56;110588;1256;22867;-55
2024/03/29 04:10:22;;;;;;;26.40;5.90;;;;;;;15.36;54.88;101100.58;110620;1257;23251;-56
2024/03/29 04:12:50;;;;;;;18.90;6.60;;;;;;;15.37;54.83;101098.61;110453;1259;22139;-55
2024/03/29 04:15:18;;;;;;;26.00;6.40;;;;;;;15.39;54.74;101092.95;110616;1253;22396;-56
2024/03/29 04:17:45;;;;;;;26.70;7.20;;;;;;;15.44;54.68;101091.02;110575;1253;22400;-55
2024/03/29 04:20:13;;;;;;;23.80;6.90;;;;;;;15.57;54.32;101093.53;110578;1254;22270;-56
2024/03/29 04:22:40;;;;;;;19.10;5.80;;;;;;;15.62;54.19;101093.01;110248;1261;22148;-55
2024/03/29 04:25:08;;;;;;;18.70;5.90;;;;;;;15.64;54.03;101091.33;110583;1259;22399;-55
2024/03/29 04:27:35;;;;;;;21.30;6.30;;;;;;;15.66;54.05;101086.54;110651;1256;22134;-55
2024/03/29 04:30:03;;;;;;;14.60;5.10;;;;;;;15.67;54.09;101085.98;110611;1257;22324;-55
2024/03/29 04:32:31;;;;;;;18.30;5.30;;;;;;;15.67;54.08;101086.33;110348;1258;22386;-55
2024/03/29 04:34:58;;;;;;;16.80;5.30;;;;;;;15.68;54.12;101093.14;110405;1257;22552;-55
2024/03/29 04:37:25;;;;;;;20.30;5.30;;;;;;;15.69;54.12;101095.36;110452;1259;22336;-57
2024/03/29 04:39:53;;;;;;;22.50;5.30;;;;;;;15.71;54.06;101090.91;110443;1259;22407;-55
2024/03/29 04:42:21;;;;;;;22.30;5.70;;;;;;;15.71;54.07;101092.67;110451;1259;22191;-55
2024/03/29 04:44:48;;;;;;;16.30;5.00;;;;;;;15.71;54.15;101089.00;110198;1259;22173;-55
2024/03/29 04:47:16;;;;;;;22.30;5.00;;;;;;;15.71;54.18;101084.60;110447;1255;22182;-55
2024/03/29 04:49:44;;;;;;;25.50;5.90;;;;;;;15.72;54.14;101088.25;110397;1259;23088;-55
2024/03/29 04:52:11;;;;;;;18.70;5.10;;;;;;;15.74;54.12;101095.35;110445;1256;22429;-55
2024/03/29 04:54:39;;;;;;;14.60;5.40;;;;;;;15.75;53.97;101099.67;110393;1257;22257;-55
2024/03/29 04:57:06;;;;;;;15.70;5.00;;;;;;;15.75;53.98;101103.16;110167;1259;22412;-55
2024/03/29 04:59:34;;;;;;;19.00;5.00;;;;;;;15.75;53.89;101112.08;110395;1259;22192;-55
2024/03/29 05:02:01;;;;;;;11.80;4.30;;;;;;;15.74;53.83;101114.06;110427;1259;22385;-55
2024/03/29 05:04:29;;;;;;;19.50;4.90;;;;;;;15.72;53.87;101104.16;110563;1260;22393;-55
2024/03/29 05:06:57;;;;;;;20.10;4.90;;;;;;;15.71;54.06;101098.09;110580;1256;22342;-55
2024/03/29 05:09:24;;;;;;;19.70;5.60;;;;;;;15.71;54.26;101100.19;110662;1256;22344;-55
2024/03/29 05:11:52;;;;;;;20.10;5.10;;;;;;;15.72;54.38;101104.69;110588;1269;22119;-55
2024/03/29 05:14:20;;;;;;;21.70;5.00;;;;;;;15.73;54.25;101099.91;110583;1256;22907;-55
2024/03/29 05:16:48;;;;;;;13.50;4.40;;;;;;;15.73;54.39;101095.71;110593;1256;22354;-55
2024/03/29 05:19:15;;;;;;;18.00;5.20;;;;;;;15.76;54.62;101092.64;110581;1256;22419;-55
2024/03/29 05:21:43;;;;;;;23.00;5.60;;;;;;;15.81;54.52;101104.35;110630;1254;22384;-55
2024/03/29 05:24:11;;;;;;;20.70;5.50;;;;;;;15.83;54.36;101104.44;110623;1256;22257;-55
2024/03/29 05:26:38;;;;;;;19.00;5.90;;;;;;;15.76;54.41;101108.55;110577;1256;22436;-55
2024/03/29 05:29:07;;;;;;;20.10;6.10;;;;;;;15.67;54.70;101111.16;110453;1257;22377;-55
2024/03/29 05:31:35;;;;;;;21.30;5.50;;;;;;;15.66;54.70;101107.19;110565;1271;22110;-55
2024/03/29 05:34:02;;;;;;;15.60;5.60;;;;;;;15.66;54.78;101103.15;110553;1255;22349;-55
2024/03/29 05:36:30;;;;;;;14.20;4.70;;;;;;;15.66;54.75;101100.34;110323;1259;22188;-55
2024/03/29 05:38:57;;;;;;;15.70;4.70;;;;;;;15.66;54.69;101100.17;110606;1254;22847;-55
2024/03/29 05:41:26;;;;;;;12.20;4.30;;;;;;;15.72;54.75;101100.68;110556;1269;22157;-55
2024/03/29 05:43:53;;;;;;;21.30;5.50;;;;;;;15.75;54.79;101102.65;110602;1256;22405;-55
2024/03/29 05:46:21;;;;;;;24.00;6.10;;;;;;;15.75;54.86;101098.96;110617;1254;22147;-56
2024/03/29 05:48:48;;;;;;;21.60;4.30;;;;;;;15.79;54.84;101105.30;110319;1259;22448;-55
2024/03/29 05:51:15;;;;;;;16.50;5.30;;;;;;;15.85;54.73;101106.62;110584;1253;22412;-55
2024/03/29 05:53:43;;;;;;;16.70;4.70;;;;;;;15.94;54.74;101112.07;110614;1257;22782;-55
2024/03/29 05:56:11;;;;;;;15.60;4.90;;;;;;;16.06;54.88;101110.88;110227;1262;22144;-55
2024/03/29 05:58:38;;;;;;;22.20;5.50;;;;;;;16.25;55.03;101107.17;110601;1256;22966;-55
2024/03/29 06:01:06;;;;;;;17.70;5.10;;;;;;;16.49;54.66;101110.62;110563;1267;22108;-55
2024/03/29 06:03:33;;;;;;;18.40;5.10;;;;;;;16.78;54.00;101109.60;110554;1256;22475;-56
2024/03/29 06:06:01;;;;;;;18.60;4.40;;;;;;;17.14;53.34;101110.67;110621;1254;22400;-56
2024/03/29 06:08:29;;;;;;;14.60;4.50;;;;;;;17.55;52.38;101108.52;110603;1257;22359;-56
2024/03/29 06:10:57;;;;;;;16.50;5.10;;;;;;;18.04;51.25;101104.86;110465;1260;22561;-56
2024/03/29 06:18:56;;;;;;;16.60;4.90;;;;;;;19.64;47.64;101100.10;110563;1255;22147;-56
2024/03/29 06:21:24;;;;;;;18.90;5.70;;;;;;;19.90;46.38;101103.29;110321;1259;22450;-56
2024/03/29 06:23:51;;;;;;;15.00;4.80;;;;;;;19.96;45.69;101103.81;110651;1254;23003;-55
2024/03/29 06:26:20;;;;;;;15.00;4.10;;;;;;;19.90;45.26;101105.72;110583;1256;23051;-55
2024/03/29 06:28:48;;;;;;;12.90;4.90;;;;;;;19.74;45.19;101108.88;110582;1264;22403;-55
2024/03/29 06:31:16;;;;;;;17.20;4.80;;;;;;;19.56;45.37;101112.02;110581;1256;22136;-55
2024/03/29 06:33:43;;;;;;;17.00;5.70;;;;;;;19.39;45.58;101108.81;110576;1256;22270;-56
2024/03/29 06:36:10;;;;;;;17.20;5.40;;;;;;;19.28;45.97;101115.73;110633;1266;22138;-55
2024/03/29 06:38:38;;;;;;;13.70;5.00;;;;;;;19.22;46.07;101115.15;110591;1267;22326;-55
2024/03/29 06:41:05;;;;;;;19.60;4.70;;;;;;;19.17;46.03;101113.99;110507;1270;22391;-56
2024/03/29 06:43:33;;;;;;;11.90;4.20;;;;;;;19.14;46.27;101114.89;110572;1269;22191;-56
2024/03/29 06:46:02;;;;;;;13.80;4.70;;;;;;;19.19;46.61;101111.63;110584;1256;23290;-55
2024/03/29 06:48:31;;;;;;;16.00;5.20;;;;;;;19.36;46.09;101115.13;110590;1273;22464;-55
2024/03/29 06:50:58;;;;;;;16.90;4.70;;;;;;;19.52;45.40;101115.01;110333;1272;23140;-55
2024/03/29 06:53:26;;;;;;;14.00;5.40;;;;;;;19.59;45.36;101117.64;110495;1257;22152;-55
2024/03/29 06:55:54;;;;;;;19.40;5.20;;;;;;;19.65;45.21;101114.52;110638;1256;22277;-55
2024/03/29 06:58:23;;;;;;;16.80;5.70;;;;;;;19.73;45.02;101106.66;110578;1257;22282;-55
2024/03/29 07:00:50;;;;;;;13.30;4.30;;;;;;;19.81;44.92;101102.18;110560;1255;22284;-56
2024/03/29 07:03:21;;;;;;;14.60;4.30;;;;;;;19.91;44.92;101096.35;110551;1256;22410;-56
2024/03/29 07:05:48;;;;;;;19.30;5.80;;;;;;;20.11;44.73;101084.16;110512;1275;22117;-56
2024/03/29 07:08:16;;;;;;;18.10;6.20;;;;;;;20.38;44.16;101084.22;110553;1271;22344;-56
2024/03/29 07:10:44;;;;;;;11.70;4.80;;;;;;;20.63;43.75;101082.38;110581;1267;23021;-56
2024/03/29 07:13:12;;;;;;;16.10;5.20;;;;;;;20.87;43.12;101073.55;110606;1253;22313;-56
2024/03/29 07:15:39;;;;;;;15.70;5.30;;;;;;;21.05;42.55;101066.46;110684;1256;22179;-55
2024/03/29 07:18:07;;;;;;;16.00;5.30;;;;;;;21.18;42.20;101067.47;110393;1267;22375;-56
2024/03/29 07:20:34;;;;;;;14.50;4.90;;;;;;;21.28;41.83;101064.77;110630;1272;22145;-56
2024/03/29 07:23:02;;;;;;;20.00;5.80;;;;;;;21.35;41.44;101060.40;110610;1259;23131;-56
2024/03/29 07:25:29;;;;;;;13.60;4.70;;;;;;;21.45;41.09;101048.52;110597;1256;22290;-56
2024/03/29 07:27:57;;;;;;;17.70;5.40;;;;;;;21.47;40.85;101046.62;110479;1259;22298;-56
2024/03/29 07:30:24;;;;;;;21.80;5.80;;;;;;;21.44;40.91;101043.98;110572;1256;22310;-56
2024/03/29 07:32:52;;;;;;;14.80;5.60;;;;;;;21.37;40.93;101041.61;110610;1271;22153;-55
2024/03/29 07:35:19;;;;;;;13.00;5.10;;;;;;;21.27;40.91;101046.80;110603;1258;22275;-56
2024/03/29 07:37:49;;;;;;;17.50;4.70;;;;;;;21.07;41.15;101049.05;110366;1274;22427;-56
2024/03/29 07:40:16;;;;;;;17.10;5.40;;;;;;;20.84;41.56;101055.55;110597;1254;22440;-55
2024/03/29 07:42:44;;;;;;;23.70;6.00;;;;;;;20.60;41.78;101055.95;110588;1270;22358;-56
2024/03/29 07:45:11;;;;;;;15.60;6.90;;;;;;;20.35;42.31;101053.91;110619;1267;22532;-55
2024/03/29 07:48:30;;;;;;;19.10;8.70;;;;;;;20.13;42.61;101051.96;110297;1260;22369;-55
2024/03/29 07:50:58;;;;;;;16.20;9.50;;;;;;;19.85;43.05;101051.77;110540;1274;22137;-55
2024/03/29 07:53:25;;;;;;;20.40;9.80;;;;;;;19.63;43.50;101053.23;110551;1269;22404;-56
2024/03/29 07:55:52;;;;;;;18.80;9.10;;;;;;;19.45;43.75;101053.08;110342;1273;23264;-55
2024/03/29 07:58:20;;;;;;;20.30;9.00;;;;;;;19.29;43.99;101047.25;110531;1272;22279;-55
2024/03/29 08:00:48;;;;;;;16.40;8.70;;;;;;;19.12;44.41;101046.55;110384;1273;22920;-55
2024/03/29 08:03:15;;;;;;;22.00;11.50;;;;;;;19.02;44.93;101059.55;110566;1267;22316;-55
2024/03/29 08:05:43;;;;;;;19.00;12.00;;;;;;;18.98;45.05;101062.45;110545;1275;22475;-56
2024/03/29 08:08:10;;;;;;;22.40;11.50;;;;;;;18.94;45.09;101065.46;110611;1257;22262;-55
2024/03/29 08:10:38;;;;;;;21.50;9.00;;;;;;;18.92;45.23;101064.88;110632;1266;22422;-54
2024/03/29 08:13:06;;;;;;;25.20;12.80;;;;;;;18.89;45.25;101057.30;110594;1267;22288;-55
2024/03/29 08:15:34;;;;;;;18.40;7.60;;;;;;;18.84;45.32;101048.20;110578;1269;22163;-55
2024/03/29 08:18:01;;;;;;;11.90;5.30;;;;;;;18.79;45.54;101038.61;110546;1273;22283;-55
2024/03/29 08:20:29;;;;;;;12.00;5.40;;;;;;;18.80;45.62;101033.85;110330;1274;23238;-54
2024/03/29 08:22:59;;;;;;;21.00;6.60;;;;;;;18.79;45.63;101031.61;110574;1271;22630;-55
2024/03/29 08:25:30;;;;;;;22.80;12.00;;;;;;;18.76;45.61;101041.98;110290;1260;22304;-54
2024/03/29 08:27:58;;;;;;;21.70;9.00;;;;;;;18.73;45.89;101042.83;110314;1273;22226;-55
2024/03/29 08:30:26;;;;;;;22.30;9.10;;;;;;;18.74;45.96;101040.13;110575;1269;22125;-55
2024/03/29 08:32:54;;;;;;;12.40;6.50;;;;;;;18.86;45.73;101033.37;110566;1269;22952;-55
2024/03/29 08:35:21;;;;;;;18.90;5.70;;;;;;;18.96;45.57;101027.05;110569;1271;22378;-55
2024/03/29 08:37:50;;;;;;;13.40;5.30;;;;;;;19.04;45.33;101022.19;110567;1269;22280;-54
2024/03/29 08:40:17;;;;;;;16.00;5.30;;;;;;;19.08;45.09;101027.96;110559;1267;22439;-55
2024/03/29 08:42:45;;;;;;;21.10;10.30;;;;;;;19.09;45.12;101024.58;110476;1274;22335;-55
2024/03/29 08:45:13;;;;;;;14.40;8.00;;;;;;;19.10;45.13;101023.65;110622;1274;22860;-55
2024/03/29 08:47:40;;;;;;;14.60;7.40;;;;;;;19.13;45.07;101027.15;110567;1272;22244;-55
2024/03/29 08:50:08;;;;;;;11.40;4.90;;;;;;;19.21;44.81;101016.36;110557;1274;22257;-55
2024/03/29 08:52:36;;;;;;;11.90;5.50;;;;;;;19.28;44.52;101003.34;110554;1275;22275;-55
2024/03/29 08:55:07;;;;;;;13.80;4.70;;;;;;;19.33;44.33;101004.29;110545;1273;22335;-55
2024/03/29 08:57:35;;;;;;;17.10;6.20;;;;;;;19.38;44.27;100995.95;110597;1256;22130;-54
2024/03/29 09:00:03;;;;;;;23.00;10.20;;;;;;;19.42;44.13;100996.42;110531;1270;23094;-55
2024/03/29 09:02:30;;;;;;;18.70;8.80;;;;;;;19.46;44.18;100998.65;110612;1270;23051;-55
2024/03/29 09:04:58;;;;;;;21.60;11.90;;;;;;;19.51;44.24;101004.38;110448;1272;22546;-55
2024/03/29 09:07:25;;;;;;;21.10;12.40;;;;;;;19.57;44.16;101008.16;110558;1269;23187;-55
2024/03/29 09:09:53;;;;;;;26.20;14.10;;;;;;;19.60;43.96;101010.02;110548;1267;22442;-55
2024/03/29 09:12:21;;;;;;;19.80;10.70;;;;;;;19.65;43.67;101020.52;110581;1275;22658;-55
2024/03/29 09:14:48;;;;;;;18.90;11.00;;;;;;;19.67;43.71;101014.63;110533;1274;22420;-55
2024/03/29 09:17:16;;;;;;;17.50;8.70;;;;;;;19.66;43.70;101016.08;110528;1270;22399;-54
2024/03/29 09:19:43;;;;;;;24.90;9.70;;;;;;;19.62;43.89;101018.23;110607;1256;22129;-55
2024/03/29 09:22:11;;;;;;;21.00;11.10;;;;;;;19.55;43.90;101025.86;110528;1270;22912;-54
2024/03/29 09:24:39;;;;;;;19.50;10.40;;;;;;;19.51;44.03;101024.98;110535;1275;23153;-54
2024/03/29 09:27:07;;;;;;;25.00;11.50;;;;;;;19.51;44.04;101022.01;110579;1256;22195;-55
2024/03/29 09:29:34;;;;;;;17.80;8.50;;;;;;;19.52;44.04;101006.09;110419;1275;22439;-55
2024/03/29 09:32:02;;;;;;;16.40;7.10;;;;;;;19.55;43.93;100993.80;110561;1270;22140;-55
2024/03/29 09:34:30;;;;;;;16.30;6.60;;;;;;;19.58;43.79;100992.58;110524;1270;22437;-55
2024/03/29 09:36:58;;;;;;;14.50;6.30;;;;;;;19.52;43.88;100986.92;110543;1275;22130;-55
2024/03/29 09:39:25;;;;;;;20.70;8.50;;;;;;;19.42;44.15;100980.92;110343;1274;22317;-54
2024/03/29 09:41:53;;;;;;;20.40;8.00;;;;;;;19.37;44.27;100978.40;110338;1273;22423;-55
2024/03/29 09:44:21;;;;;;;20.20;8.30;;;;;;;19.35;44.32;100973.08;110190;1275;22297;-55
2024/03/29 09:46:49;;;;;;;21.80;7.70;;;;;;;19.34;44.50;100970.14;110592;1274;22413;-55
2024/03/29 09:49:16;;;;;;;17.30;7.10;;;;;;;19.34;44.56;100970.45;110567;1267;22340;-54
2024/03/29 09:51:44;;;;;;;18.20;6.90;;;;;;;19.37;44.40;100966.77;110557;1273;22430;-55
2024/03/29 09:54:13;;;;;;;12.20;4.90;;;;;;;19.37;44.30;100971.52;110568;1274;22422;-55
2024/03/29 09:56:40;;;;;;;15.70;5.60;;;;;;;19.26;44.55;100975.65;110626;1267;22374;-56
2024/03/29 09:59:08;;;;;;;19.70;4.90;;;;;;;19.18;44.74;100982.96;110508;1275;22286;-55
2024/03/29 10:01:35;;;;;;;12.30;4.40;;;;;;;19.20;44.66;100986.88;110516;1275;22104;-54
2024/03/29 10:04:03;;;;;;;16.20;5.30;;;;;;;19.22;44.68;100981.33;110531;1266;22288;-55
2024/03/29 10:06:31;;;;;;;13.50;4.20;;;;;;;19.22;44.81;100986.42;110412;1276;22380;-55
2024/03/29 10:08:59;;;;;;;15.60;5.80;;;;;;;19.24;44.77;100995.45;110171;1269;22989;-54
2024/03/29 10:11:27;;;;;;;15.80;5.70;;;;;;;19.25;44.86;100999.77;110291;1276;23012;-56
2024/03/29 10:13:54;;;;;;;19.60;6.10;;;;;;;19.27;44.76;100998.11;110500;1276;22730;-55
2024/03/29 10:16:23;;;;;;;12.60;5.40;;;;;;;19.27;44.79;100997.73;110214;1276;22198;-55
2024/03/29 10:18:51;;;;;;;17.00;6.10;;;;;;;19.29;44.90;100997.27;110246;1276;22434;-54
2024/03/29 10:21:26;;;;;;;15.40;5.30;;;;;;;19.30;44.92;100997.92;109872;1276;240746;-54
2024/03/29 10:23:54;;;;;;;13.70;4.40;;;;;;;19.36;44.70;100997.97;110445;1269;23044;-55
2024/03/29 10:26:22;;;;;;;14.10;4.40;;;;;;;19.46;44.54;100996.56;110211;1276;22405;-56
2024/03/29 10:28:51;;;;;;;13.60;4.50;;;;;;;19.62;44.22;100990.60;110421;1276;22317;-55
2024/03/29 10:31:19;;;;;;;20.70;4.70;;;;;;;19.67;44.16;100989.79;110551;1276;22441;-55
2024/03/29 10:33:48;;;;;;;14.60;5.70;;;;;;;19.92;43.57;100993.09;110489;1269;22514;-55
2024/03/29 10:36:17;;;;;;;16.40;4.20;;;;;;;20.14;43.08;100983.54;110427;1273;22287;-55
2024/03/29 10:38:46;;;;;;;10.60;3.50;;;;;;;20.34;42.69;100996.89;110514;1269;22145;-56
2024/03/29 10:43:23;;;;;;;16.60;3.40;;;;;;;20.68;41.84;101004.16;104742;1297;561396;-56
2024/03/29 10:45:52;;;;;;;14.40;4.70;;;;;;;20.84;41.24;100993.65;105987;1282;25496;-55
2024/03/29 10:48:19;;;;;;;8.50;3.20;;;;;;;20.95;41.08;100995.27;106115;1281;25422;-55
2024/03/29 10:50:47;;;;;;;9.70;3.00;;;;;;;21.07;40.79;101001.27;106094;1280;25359;-55
2024/03/29 10:53:15;;;;;;;9.30;3.10;;;;;;;21.20;40.51;101008.61;106408;1275;25578;-56
2024/03/29 10:55:44;;;;;;;11.30;3.30;;;;;;;21.32;40.61;100996.38;106179;1279;298294;-55
2024/03/29 10:58:12;;;;;;;10.10;3.40;;;;;;;21.43;40.28;100994.25;106676;1275;25393;-55
2024/03/29 11:00:43;;;;;;;8.80;2.40;;;;;;;21.53;40.00;100981.65;106769;1272;25496;-55
2024/03/29 11:03:33;;;;;;;8.70;2.90;;;;;;;21.61;39.88;100981.08;106815;1272;22805;-55
2024/03/29 11:06:04;;;;;;;2.10;1.10;;;;;;;21.64;39.23;100984.65;106545;1270;25387;-54
2024/03/29 11:08:38;;;;;;;;;;;;;;;21.80;37.29;100975.11;106734;1273;22507;-56
2024/03/29 11:11:05;;;;;;;3.40;1.20;;;;;;;22.14;36.15;100972.51;106789;1270;22543;-56
2024/03/29 11:13:52;;;;;;;3.00;0.70;;;;;;;22.66;34.69;100969.52;106802;1270;25478;-56
2024/03/29 11:16:20;;;;;;;2.00;0.80;;;;;;;23.15;34.49;100979.04;106781;1278;25394;-56
2024/03/29 11:18:47;;;;;;;1.10;0.70;;;;;;;23.53;33.60;100975.96;106785;1270;25500;-56
2024/03/29 11:21:18;;;;;;;1.20;0.80;;;;;;;23.87;31.81;100971.00;106850;1271;25443;-56